メインページ
METAR-TAF:

METAR-TAF

空港 :

ポンタ・デルガダ, !acores!, ポルトガル

ポンタ・デルガダ空港

緯度: 37-44N, 経度: 025-42W, 海抜: 71m

現時点の気象観測

当レポートは32分前の23:00(UTC)に作成
変向風 2kt
気温 21°C
湿度 83%
気圧 1020 hPa
視程10km以上
高度2000ftの雲はほとんどない
高度4500ftの雲は散在している
弱いにわか雨

METAR: LPPD 232300Z VRB02KT 9999 -SHRA FEW020 SCT045 21/18 Q1020

時間: 23:32 (23:32 UTC)

予報

当レポートは6時間32分前の17:00(UTC)に作成
予報は23日の 18時(UTC)から 24日の 18時(UTC)まで有効
西の風 7kt
視程10km以上
高度2000ftの雲はほとんどない
高度4000ftの雲は散在している
23日の 18時(UTC)から 23日の 21時(UTC)まで徐々に
北/北西の風 8kt
高度1200ftの雲は散在している
高度2500ftの雲は散在している
24日の 05時(UTC)から 24日の 08時(UTC)まで徐々に
北/北東の風 7kt
24日の 10時(UTC)から 24日の 12時(UTC)まで徐々に
東/南東の風 10kt

TAF: LPPD 231700Z 2318/2418 28007KT 9999 FEW020 SCT040 BECMG 2318/2321 34008KT SCT012 SCT025 BECMG 2405/2408 03007KT BECMG 2410/2412 12010KT

4,000以上の空港の気象観測と天気予報(METAR報とTAF報)

利用可能な観測所は地図上に黄色い丸と赤い丸で示す。

丸の上にカーソルを重ねると観測所名を参照できる。

次にクリックすると気象観測と天気予報を参照できる。

マップの切り替え:黒色「×」印の緑ボタンをクリックして拡大、「-」印の緑ボタンをクリックして縮小、緑色の三角印をクリックして隣りの地図に切り替え


METAR-TAF: